Time;durP1;ratioP1;P1;durP2;ratioP2;P2;SDS_P1;SDS_P2;PMS_P1;PMS_P2;Temp;Humidity;BMP_temperature;BMP_pressure;BME280_temperature;BME280_humidity;BME280_pressure;Samples;Min_cycle;Max_cycle;Signal;HPM_P1;HPM_P2
2023/09/14 00:03:23;;;;;;;3.20;2.33;;;;;;;15.92;100.00;152688.88;10418422;28;20048;-67
2023/09/14 00:08:29;;;;;;;2.38;2.17;;;;;;;15.85;100.00;152673.34;10418549;28;20049;-68
2023/09/14 00:13:31;;;;;;;5.20;2.40;;;;;;;16.00;100.00;152710.91;10400059;28;20045;-68
2023/09/14 00:18:33;;;;;;;2.92;2.72;;;;;;;15.89;100.00;152682.38;10417743;28;20051;-69
2023/09/14 00:23:35;;;;;;;3.75;3.38;;;;;;;15.89;100.00;152682.38;10417491;28;20038;-67
2023/09/14 00:28:37;;;;;;;4.65;4.25;;;;;;;15.89;100.00;152683.72;10417202;28;20049;-68
2023/09/14 00:33:38;;;;;;;6.10;4.90;;;;;;;15.68;100.00;152627.97;10417581;28;20042;-68
2023/09/14 00:38:40;;;;;;;5.05;4.63;;;;;;;15.64;100.00;152618.91;10399102;28;20060;-68
2023/09/14 00:43:43;;;;;;;5.43;4.35;;;;;;;15.65;100.00;152621.47;10456503;22;20132;-72
2023/09/14 00:48:45;;;;;;;4.72;3.00;;;;;;;15.58;100.00;152603.28;10442653;28;20052;-72
2023/09/14 00:53:49;;;;;;;3.97;2.50;;;;;;;15.40;100.00;152557.91;10459604;28;20402;-72
2023/09/14 00:58:51;;;;;;;3.38;2.30;;;;;;;15.34;100.00;152542.38;10442220;28;20049;-72
2023/09/14 01:03:53;;;;;;;4.30;3.08;;;;;;;15.26;100.00;152521.66;10441151;28;20033;-73
2023/09/14 01:08:55;;;;;;;3.75;3.22;;;;;;;15.24;100.00;152517.78;10459849;28;20041;-73
2023/09/14 01:14:28;;;;;;;4.22;2.28;;;;;;;15.33;100.00;152539.81;10440711;28;20033;-73
2023/09/14 01:19:30;;;;;;;4.43;3.30;;;;;;;15.44;100.00;152568.28;10457277;28;20057;-73
2023/09/14 01:24:56;;;;;;;3.92;3.08;;;;;;;15.47;100.00;152576.06;10424251;28;20056;-71
2023/09/14 01:30:00;;;;;;;5.82;3.30;;;;;;;15.38;100.00;152552.75;10440447;28;20055;-71
2023/09/14 01:35:05;;;;;;;6.47;3.45;;;;;;;15.31;100.00;152534.59;10440330;28;20041;-72
2023/09/14 01:40:09;;;;;;;4.70;2.60;;;;;;;15.35;100.00;152544.97;10439817;28;20513;-70
2023/09/14 01:45:13;;;;;;;4.97;4.10;;;;;;;15.34;100.00;152543.69;10427919;28;20494;-72
2023/09/14 01:50:15;;;;;;;4.45;3.67;;;;;;;15.22;100.00;152511.28;10447661;28;20064;-72
2023/09/14 01:55:17;;;;;;;11.48;5.07;;;;;;;15.16;100.00;152495.75;10449904;28;20045;-72
2023/09/14 02:00:19;;;;;;;4.35;3.60;;;;;;;15.24;100.00;152517.78;10431765;28;20049;-73
2023/09/14 02:05:21;;;;;;;3.55;3.08;;;;;;;15.25;100.00;152520.34;10431199;28;20053;-72
2023/09/14 02:10:23;;;;;;;5.00;3.60;;;;;;;15.18;100.00;152500.91;10448145;28;20053;-71
2023/09/14 02:15:24;;;;;;;3.33;3.00;;;;;;;15.10;100.00;152482.81;10466370;28;20505;-72
2023/09/14 02:20:26;;;;;;;4.38;2.88;;;;;;;14.96;100.00;152446.50;10465195;28;20048;-71
2023/09/14 02:25:29;;;;;;;4.50;3.22;;;;;;;14.90;100.00;152430.97;10446820;28;20041;-72
2023/09/14 02:30:31;;;;;;;3.28;2.22;;;;;;;14.93;100.00;152437.47;10463859;28;20049;-72
2023/09/14 02:35:34;;;;;;;3.50;1.90;;;;;;;14.70;100.00;152379.16;10447205;28;20053;-71
2023/09/14 02:40:36;;;;;;;4.68;2.10;;;;;;;14.39;100.00;152302.72;10448842;28;20432;-72
2023/09/14 02:45:38;;;;;;;3.67;2.72;;;;;;;14.55;100.00;152342.91;10446322;28;20049;-72
2023/09/14 02:50:40;;;;;;;3.10;1.98;;;;;;;14.48;100.00;152324.78;10446017;28;20045;-72
2023/09/14 02:55:42;;;;;;;2.72;2.20;;;;;;;14.44;100.00;152314.38;10445355;28;20071;-72
2023/09/14 03:00:44;;;;;;;3.15;1.92;;;;;;;14.36;100.00;152293.66;10446679;28;20037;-73
2023/09/14 03:05:51;;;;;;;3.88;2.22;;;;;;;14.49;100.00;152327.38;10445251;28;20056;-73
2023/09/14 03:10:53;;;;;;;4.03;1.73;;;;;;;14.70;100.00;152379.16;10428392;28;20525;-72
2023/09/14 03:15:57;;;;;;;3.65;1.80;;;;;;;14.79;100.00;152403.78;10462673;28;20041;-71
2023/09/14 03:20:59;;;;;;;5.28;2.17;;;;;;;14.46;100.00;152318.25;10462634;28;20437;-72
2023/09/14 03:26:01;;;;;;;5.97;1.98;;;;;;;14.19;100.00;152249.63;10445651;28;20506;-72
2023/09/14 03:31:03;;;;;;;3.22;1.55;;;;;;;14.27;100.00;152270.34;10444598;28;20047;-72
2023/09/14 03:36:05;;;;;;;2.88;1.55;;;;;;;14.14;100.00;152238.00;10444121;28;20111;-72
2023/09/14 03:41:07;;;;;;;2.75;1.30;;;;;;;14.20;100.00;152252.22;10443662;28;20041;-73
2023/09/14 03:46:12;;;;;;;2.38;1.45;;;;;;;14.04;100.00;152213.41;10444804;28;20071;-72
2023/09/14 03:51:14;;;;;;;3.65;2.03;;;;;;;14.20;100.00;152253.50;10444484;28;20110;-72
2023/09/14 03:56:16;;;;;;;3.85;1.30;;;;;;;14.22;100.00;152257.41;10427144;28;20049;-72
2023/09/14 04:01:17;;;;;;;4.25;2.28;;;;;;;14.29;100.00;152275.50;10461312;28;20041;-72
2023/09/14 04:06:19;;;;;;;3.42;1.58;;;;;;;14.24;100.00;152263.88;10462767;28;20378;-71
2023/09/14 04:11:21;;;;;;;4.82;1.80;;;;;;;14.41;100.00;152306.59;10441811;28;20048;-72
2023/09/14 04:16:28;;;;;;;3.65;1.50;;;;;;;14.55;100.00;152342.91;10443831;28;20041;-72
2023/09/14 04:21:30;;;;;;;2.83;1.52;;;;;;;14.35;100.00;152291.09;10443072;28;20036;-71
2023/09/14 04:26:32;;;;;;;6.38;2.70;;;;;;;14.39;100.00;152301.44;10442640;28;20421;-71
2023/09/14 04:31:34;;;;;;;3.30;2.15;;;;;;;14.24;100.00;152262.56;10461597;28;20040;-71
2023/09/14 04:36:39;;;;;;;3.30;2.65;;;;;;;14.31;100.00;152282.00;10459832;28;20099;-71
2023/09/14 04:41:41;;;;;;;3.78;2.88;;;;;;;14.29;100.00;152275.50;10442120;28;20131;-72
2023/09/14 04:46:43;;;;;;;2.92;2.60;;;;;;;14.13;100.00;152235.41;10459666;28;20438;-72
2023/09/14 04:51:47;;;;;;;3.75;2.28;;;;;;;14.23;100.00;152260.00;10461281;28;20061;-71
2023/09/14 04:56:49;;;;;;;3.60;2.85;;;;;;;14.66;100.00;152370.13;10459982;28;20037;-71
2023/09/14 05:01:51;;;;;;;6.70;2.72;;;;;;;14.82;100.00;152410.25;10458933;28;20048;-72
2023/09/14 05:06:53;;;;;;;5.55;2.33;;;;;;;14.44;100.00;152314.38;10459049;28;20175;-72
2023/09/14 05:11:54;;;;;;;4.18;2.72;;;;;;;14.39;100.00;152301.44;10443809;28;20045;-71
2023/09/14 05:16:56;;;;;;;4.43;2.80;;;;;;;14.34;100.00;152288.44;10440819;28;20502;-70
2023/09/14 05:21:58;;;;;;;3.75;2.63;;;;;;;14.43;100.00;152310.47;10424237;28;20095;-73
2023/09/14 05:27:01;;;;;;;3.85;2.40;;;;;;;14.35;100.00;152292.38;10440929;28;20171;-73
2023/09/14 05:32:03;;;;;;;4.15;2.30;;;;;;;14.51;100.00;152332.53;10441450;28;20466;-72
2023/09/14 05:37:05;;;;;;;2.70;2.40;;;;;;;14.43;100.00;152311.75;10443581;28;20045;-72
2023/09/14 05:42:07;;;;;;;5.22;2.63;;;;;;;14.59;100.00;152353.25;10441151;28;20414;-72
2023/09/14 05:47:09;;;;;;;4.03;3.30;;;;;;;14.42;100.00;152309.19;10458518;28;20116;-72
2023/09/14 05:52:11;;;;;;;6.03;3.15;;;;;;;14.54;100.00;152339.03;10440658;28;20041;-72
2023/09/14 05:57:14;;;;;;;3.67;3.33;;;;;;;14.35;100.00;152291.09;10441970;28;20502;-72
2023/09/14 06:02:18;;;;;;;5.28;4.20;;;;;;;14.29;100.00;152276.81;10440814;28;20136;-71
2023/09/14 06:07:25;;;;;;;4.38;3.63;;;;;;;14.34;100.00;152289.78;10439935;28;20049;-71
2023/09/14 06:12:29;;;;;;;4.65;3.58;;;;;;;14.31;100.00;152282.00;10439570;28;20052;-72
2023/09/14 06:17:31;;;;;;;4.68;3.80;;;;;;;14.44;100.00;152313.09;10459251;28;20040;-72
2023/09/14 06:22:33;;;;;;;7.18;4.32;;;;;;;14.35;100.00;152292.38;10457806;28;20045;-72
2023/09/14 06:27:35;;;;;;;4.88;3.95;;;;;;;14.47;100.00;152320.81;10458260;28;20095;-71
2023/09/14 06:32:37;;;;;;;5.47;4.70;;;;;;;14.29;100.00;152276.81;10444968;28;20484;-71
2023/09/14 06:37:39;;;;;;;6.05;4.22;;;;;;;14.41;100.00;152306.59;10466437;28;20067;-72
2023/09/14 06:42:41;;;;;;;5.07;4.57;;;;;;;14.11;100.00;152230.19;10462419;22;20068;-71
2023/09/14 06:47:43;;;;;;;5.35;4.90;;;;;;;14.21;100.00;152256.13;10445986;28;20470;-70
2023/09/14 06:52:45;;;;;;;5.35;4.53;;;;;;;14.29;100.00;152276.81;10462466;28;20033;-70
2023/09/14 06:57:47;;;;;;;8.52;4.43;;;;;;;14.27;100.00;152271.66;10461942;28;20071;-70
2023/09/14 07:02:48;;;;;;;7.25;5.82;;;;;;;14.19;100.00;152250.91;10461393;28;20442;-70
2023/09/14 07:07:50;;;;;;;5.07;4.68;;;;;;;14.13;100.00;152235.41;10443805;28;20045;-72
2023/09/14 07:12:52;;;;;;;6.32;5.80;;;;;;;14.14;100.00;152238.00;10443952;28;20133;-69
2023/09/14 07:17:54;;;;;;;8.02;5.80;;;;;;;14.38;100.00;152300.09;10443473;28;20498;-72
2023/09/14 07:22:57;;;;;;;7.18;6.00;;;;;;;14.12;100.00;152234.13;10461144;28;20037;-69
2023/09/14 07:27:58;;;;;;;6.88;6.13;;;;;;;14.14;100.00;152239.28;10460741;28;20112;-70
2023/09/14 07:33:00;;;;;;;6.78;6.10;;;;;;;14.30;100.00;152278.13;10443002;28;20119;-70
2023/09/14 07:38:02;;;;;;;10.38;7.60;;;;;;;14.22;100.00;152257.41;10460379;28;20064;-70
2023/09/14 07:43:04;;;;;;;9.30;8.50;;;;;;;14.09;100.00;152225.03;10460237;28;20124;-70
2023/09/14 07:48:07;;;;;;;9.02;8.30;;;;;;;14.21;100.00;152254.78;10460157;28;20051;-70
2023/09/14 07:53:09;;;;;;;7.72;7.03;;;;;;;14.45;100.00;152316.97;10459488;28;20091;-70
2023/09/14 07:58:11;;;;;;;7.40;6.68;;;;;;;14.68;100.00;152373.97;10459586;28;20449;-70
2023/09/14 08:03:14;;;;;;;5.63;5.10;;;;;;;14.67;100.00;152372.69;10459393;28;20048;-70
2023/09/14 08:08:16;;;;;;;6.80;4.35;;;;;;;14.55;100.00;152342.91;10459403;28;20402;-70
2023/09/14 08:13:18;;;;;;;9.90;4.63;;;;;;;14.66;100.00;152368.84;10459007;28;20458;-70
2023/09/14 08:18:20;;;;;;;6.50;5.90;;;;;;;14.58;100.00;152350.69;10441057;28;20065;-70
2023/09/14 08:23:22;;;;;;;7.78;6.43;;;;;;;15.02;99.94;152460.78;10458664;28;20034;-70
2023/09/14 08:28:23;;;;;;;7.07;6.47;;;;;;;15.32;96.99;152537.22;10458274;28;20045;-70
2023/09/14 08:33:25;;;;;;;7.72;6.80;;;;;;;15.34;94.81;152542.38;10457978;28;20069;-70
2023/09/14 08:38:28;;;;;;;7.22;6.57;;;;;;;15.24;96.26;152516.50;10458368;28;20045;-70
2023/09/14 08:43:32;;;;;;;6.03;5.53;;;;;;;15.28;97.51;152526.84;10457838;28;20043;-70
2023/09/14 08:48:37;;;;;;;6.10;5.50;;;;;;;15.31;97.98;152535.88;10458132;28;20093;-70
2023/09/14 08:53:40;;;;;;;6.35;5.25;;;;;;;15.67;92.56;152625.34;10456715;28;20044;-70
2023/09/14 08:58:44;;;;;;;5.88;5.28;;;;;;;15.86;89.66;152674.63;10456929;28;20119;-70
2023/09/14 09:03:46;;;;;;;6.05;4.70;;;;;;;15.84;91.16;152670.72;10457158;28;20041;-70
2023/09/14 09:08:48;;;;;;;4.47;3.88;;;;;;;15.88;85.84;152679.78;10456669;28;20445;-70
2023/09/14 09:13:50;;;;;;;5.05;4.00;;;;;;;15.40;90.73;152557.91;10456693;28;20124;-69
2023/09/14 09:19:12;;;;;;;6.15;4.00;;;;;;;15.47;92.29;152574.78;10456293;28;20048;-69
2023/09/14 09:24:25;;;;;;;6.68;4.03;;;;;;;15.47;89.86;152576.06;10455713;28;20063;-69
2023/09/14 09:29:27;;;;;;;3.83;3.53;;;;;;;15.79;87.64;152657.75;10438153;28;20132;-69
2023/09/14 09:34:33;;;;;;;5.53;3.90;;;;;;;15.94;86.61;152695.38;10456003;28;20040;-69
2023/09/14 09:39:35;;;;;;;4.20;3.60;;;;;;;15.92;87.20;152688.88;10455764;28;20054;-70
2023/09/14 09:44:38;;;;;;;5.53;4.38;;;;;;;16.24;84.85;152770.53;10437638;28;20124;-70
2023/09/14 09:49:40;;;;;;;5.15;3.75;;;;;;;16.40;82.96;152812.03;10456341;28;20047;-70
2023/09/14 09:54:41;;;;;;;4.55;3.47;;;;;;;16.72;80.66;152892.44;10455970;28;20574;-69
2023/09/14 09:59:47;;;;;;;5.13;3.47;;;;;;;16.63;82.12;152871.69;10438510;28;20071;-70
2023/09/14 10:04:52;;;;;;;3.53;2.95;;;;;;;16.30;83.04;152786.13;10458188;28;20041;-70
2023/09/14 10:09:54;;;;;;;7.97;3.80;;;;;;;16.74;81.83;152897.69;10465739;28;20431;-70
2023/09/14 10:14:59;;;;;;;4.53;2.90;;;;;;;16.82;79.79;152918.41;10447835;28;20170;-70
2023/09/14 10:20:08;;;;;;;3.90;1.85;;;;;;;16.98;75.95;152958.66;10466059;28;20042;-71
2023/09/14 10:25:10;;;;;;;5.13;2.03;;;;;;;17.12;75.90;152994.94;10464820;28;20037;-70
2023/09/14 10:30:19;;;;;;;4.00;2.05;;;;;;;17.85;70.68;153180.59;10465306;28;20075;-71
2023/09/14 10:35:21;;;;;;;3.17;2.70;;;;;;;18.03;70.91;153227.31;10464947;28;20075;-71
2023/09/14 10:40:25;;;;;;;4.13;2.17;;;;;;;18.24;67.57;153280.56;10463924;28;20084;-70
2023/09/14 10:45:32;;;;;;;3.58;2.00;;;;;;;17.92;71.15;153197.44;10463331;28;20065;-71
2023/09/14 10:50:33;;;;;;;2.50;1.95;;;;;;;18.01;67.29;153220.81;10446472;28;20045;-71
2023/09/14 10:55:36;;;;;;;3.13;2.53;;;;;;;18.23;65.86;153276.63;10446778;28;20493;-70
2023/09/14 11:00:42;;;;;;;5.80;2.60;;;;;;;18.42;67.27;153326.00;10463267;28;20041;-70
2023/09/14 11:05:57;;;;;;;4.97;2.72;;;;;;;18.89;64.86;153445.50;10464146;28;20041;-70
2023/09/14 11:11:00;;;;;;;3.00;1.95;;;;;;;18.57;64.87;153364.94;10464013;28;20494;-70
2023/09/14 11:16:24;;;;;;;4.18;2.72;;;;;;;18.20;66.40;153270.16;10443902;28;20056;-70
2023/09/14 11:21:32;;;;;;;3.78;2.25;;;;;;;18.62;65.92;153377.91;10462083;28;20095;-70
2023/09/14 11:26:46;;;;;;;3.17;1.80;;;;;;;19.38;61.56;153570.19;10445857;28;20041;-70
2023/09/14 11:32:00;;;;;;;2.33;1.42;;;;;;;19.15;59.29;153513.03;10463416;28;20041;-71
2023/09/14 11:37:12;;;;;;;3.63;1.40;;;;;;;18.62;58.42;153377.91;10462375;28;20083;-70
2023/09/14 11:42:24;;;;;;;5.60;1.60;;;;;;;18.44;60.00;153331.16;10461903;28;20044;-70
2023/09/14 11:47:32;;;;;;;3.20;1.63;;;;;;;19.13;60.07;153507.88;10462320;28;20040;-70
2023/09/14 11:52:41;;;;;;;3.47;1.67;;;;;;;19.33;60.33;153558.50;10461134;28;20041;-69
2023/09/14 11:57:42;;;;;;;2.65;1.92;;;;;;;19.18;59.85;153519.56;10460610;28;20564;-69
2023/09/14 12:02:44;;;;;;;4.70;2.10;;;;;;;19.37;58.47;153567.63;10442401;28;20387;-69
2023/09/14 12:07:46;;;;;;;2.80;1.80;;;;;;;19.38;60.63;153570.19;10459510;28;20041;-70
2023/09/14 12:12:48;;;;;;;3.72;1.75;;;;;;;19.24;61.87;153535.13;10441956;28;20079;-70
2023/09/14 12:17:51;;;;;;;2.75;1.88;;;;;;;19.01;62.09;153475.38;10460666;28;20033;-69
2023/09/14 12:22:53;;;;;;;2.83;2.00;;;;;;;18.76;64.10;153411.72;10460511;28;20091;-70
2023/09/14 12:27:55;;;;;;;3.70;1.90;;;;;;;19.22;61.10;153529.94;10459717;28;20072;-70
2023/09/14 12:32:59;;;;;;;3.35;1.77;;;;;;;18.97;61.47;153465.00;10460462;28;20041;-70
2023/09/14 12:38:05;;;;;;;2.30;1.55;;;;;;;19.11;61.90;153502.63;10461460;28;20051;-69
2023/09/14 12:43:07;;;;;;;3.10;1.77;;;;;;;18.81;62.63;153426.00;10474630;22;20124;-70
2023/09/14 12:48:09;;;;;;;2.70;1.20;;;;;;;19.26;61.57;153539.06;10462073;28;20037;-70
2023/09/14 12:53:16;;;;;;;2.38;2.05;;;;;;;19.70;59.38;153652.16;10442763;28;20148;-70
2023/09/14 12:58:22;;;;;;;2.72;1.55;;;;;;;19.33;61.52;153557.22;10446004;28;20055;-70
2023/09/14 13:03:25;;;;;;;3.58;2.03;;;;;;;19.12;60.63;153505.28;10461184;28;20040;-70
2023/09/14 13:08:27;;;;;;;2.78;1.48;;;;;;;19.28;60.60;153545.53;10461670;28;20048;-70
2023/09/14 13:13:32;;;;;;;3.40;1.42;;;;;;;19.43;59.83;153583.19;10461308;28;20037;-69
2023/09/14 13:18:34;;;;;;;2.50;1.10;;;;;;;19.30;59.67;153549.41;10461839;28;20044;-70
2023/09/14 13:23:36;;;;;;;1.30;1.13;;;;;;;19.43;58.45;153583.19;10443786;28;20041;-69
2023/09/14 13:28:37;;;;;;;3.03;1.35;;;;;;;19.90;56.17;153704.09;10460911;28;20049;-70
2023/09/14 13:33:40;;;;;;;1.55;1.00;;;;;;;19.53;57.94;153609.22;10460514;28;20045;-70
2023/09/14 13:38:42;;;;;;;1.88;1.13;;;;;;;19.85;57.25;153689.81;10441615;28;20048;-70
2023/09/14 13:43:44;;;;;;;1.88;1.50;;;;;;;20.01;59.08;153731.44;10461078;28;20124;-70
2023/09/14 13:48:45;;;;;;;4.03;1.48;;;;;;;19.89;56.97;153701.53;10442180;28;20434;-70
2023/09/14 13:53:47;;;;;;;1.73;1.48;;;;;;;20.05;57.67;153740.50;10427945;28;20072;-70
2023/09/14 13:58:50;;;;;;;1.88;1.70;;;;;;;19.30;58.96;153549.41;10461313;28;20053;-70
2023/09/14 14:03:55;;;;;;;2.03;1.67;;;;;;;19.12;58.92;153503.94;10457438;28;20045;-70
2023/09/14 14:08:57;;;;;;;2.70;1.30;;;;;;;19.15;58.34;153513.03;10469007;28;20132;-71
2023/09/14 14:13:59;;;;;;;2.10;1.08;;;;;;;19.39;57.81;153572.84;10470822;28;20048;-69
2023/09/14 14:19:03;;;;;;;1.42;0.90;;;;;;;19.54;57.89;153610.50;10451910;28;20536;-70
2023/09/14 14:24:06;;;;;;;1.25;0.98;;;;;;;20.04;56.09;153737.91;10431839;28;20141;-71
2023/09/14 14:29:11;;;;;;;3.45;1.73;;;;;;;20.38;54.56;153826.31;10459782;28;20119;-69
2023/09/14 14:34:14;;;;;;;2.35;1.10;;;;;;;20.22;55.34;153784.69;10459709;28;20543;-70
2023/09/14 14:39:16;;;;;;;1.67;1.10;;;;;;;19.66;57.44;153641.75;10460074;28;20502;-70
2023/09/14 14:44:18;;;;;;;2.28;1.10;;;;;;;19.49;56.89;153597.50;10425322;28;20072;-70
2023/09/14 14:49:20;;;;;;;1.27;0.90;;;;;;;19.35;57.76;153563.72;10424388;28;20048;-70
2023/09/14 14:54:22;;;;;;;1.40;1.10;;;;;;;19.11;59.32;153502.63;10463203;28;20098;-70
2023/09/14 14:59:24;;;;;;;2.00;1.00;;;;;;;19.48;58.50;153594.88;10465740;28;20048;-70
2023/09/14 15:04:26;;;;;;;3.50;1.10;;;;;;;19.19;55.51;153522.13;10465738;28;20044;-70
2023/09/14 15:09:30;;;;;;;1.42;0.82;;;;;;;19.22;55.79;153529.94;10464318;28;20120;-70
2023/09/14 15:14:32;;;;;;;1.42;0.90;;;;;;;19.25;55.54;153536.41;10446797;28;20056;-71
2023/09/14 15:19:34;;;;;;;1.67;1.27;;;;;;;19.34;56.00;153561.09;10463931;28;20048;-70
2023/09/14 15:24:37;;;;;;;1.02;0.73;;;;;;;19.38;55.76;153570.19;10446023;28;20490;-71
2023/09/14 15:29:42;;;;;;;1.63;1.13;;;;;;;19.27;56.05;153541.66;10464658;28;20045;-72
2023/09/14 15:34:44;;;;;;;2.05;1.00;;;;;;;19.04;56.66;153484.50;10465260;28;20071;-70
2023/09/14 15:39:47;;;;;;;1.30;1.10;;;;;;;19.00;58.03;153474.09;10463012;28;20052;-71
2023/09/14 15:44:49;;;;;;;3.17;1.10;;;;;;;19.00;56.15;153474.09;10462475;28;20059;-70
2023/09/14 15:49:51;;;;;;;1.80;1.30;;;;;;;18.76;56.88;153411.72;10479454;28;20066;-72
2023/09/14 15:54:52;;;;;;;1.60;1.05;;;;;;;18.62;57.79;153376.63;10484593;28;20127;-71
2023/09/14 15:59:55;;;;;;;1.45;1.10;;;;;;;18.71;57.75;153400.03;10503916;28;20107;-71
2023/09/14 16:04:56;;;;;;;1.48;1.20;;;;;;;18.37;58.11;153314.31;10505183;28;20036;-71
2023/09/14 16:10:00;;;;;;;2.85;1.20;;;;;;;18.34;59.40;153306.50;10503608;28;20521;-70
2023/09/14 16:15:04;;;;;;;1.70;1.13;;;;;;;18.45;57.33;153333.75;10503857;28;20115;-70
2023/09/14 16:20:08;;;;;;;2.78;1.58;;;;;;;18.28;58.94;153290.94;10503926;28;20048;-71
2023/09/14 16:25:11;;;;;;;1.90;1.23;;;;;;;18.20;60.45;153268.88;10502913;28;20033;-70
2023/09/14 16:30:13;;;;;;;2.75;1.40;;;;;;;18.05;60.70;153232.47;10502312;28;20493;-70
2023/09/14 16:35:15;;;;;;;1.40;1.20;;;;;;;17.89;61.65;153192.28;10484666;28;20098;-71
2023/09/14 16:40:18;;;;;;;2.33;1.52;;;;;;;17.87;62.67;153187.06;10504317;28;20401;-71
2023/09/14 16:45:20;;;;;;;2.05;1.30;;;;;;;17.94;65.03;153202.66;10503663;28;20094;-71
2023/09/14 16:50:22;;;;;;;1.73;1.30;;;;;;;17.78;66.32;153162.41;10502290;28;20090;-70
2023/09/14 16:55:25;;;;;;;2.92;1.42;;;;;;;17.54;67.40;153101.38;10501715;28;20437;-70
2023/09/14 17:00:26;;;;;;;2.72;1.70;;;;;;;17.58;68.41;153113.06;10498236;28;20045;-71
2023/09/14 17:05:28;;;;;;;3.33;1.63;;;;;;;17.48;69.06;153087.06;10482628;28;20041;-72
2023/09/14 17:10:30;;;;;;;3.78;2.08;;;;;;;17.53;69.27;153100.09;10461076;28;20070;-71
2023/09/14 17:15:32;;;;;;;2.78;1.92;;;;;;;17.35;69.76;153054.66;10502331;28;20117;-71
2023/09/14 17:20:34;;;;;;;2.20;1.42;;;;;;;17.11;71.42;152992.38;10470669;28;20524;-71
2023/09/14 17:25:36;;;;;;;4.28;2.00;;;;;;;16.85;72.37;152926.22;10462786;28;20072;-73
2023/09/14 17:30:38;;;;;;;3.92;2.22;;;;;;;16.64;73.60;152872.97;10443448;28;20044;-71
2023/09/14 17:35:39;;;;;;;6.78;1.90;;;;;;;16.59;74.51;152860.00;10475950;28;20044;-72
2023/09/14 17:40:41;;;;;;;2.80;1.92;;;;;;;16.28;75.83;152780.91;10461910;28;20564;-73
2023/09/14 17:45:43;;;;;;;3.25;2.10;;;;;;;16.13;78.17;152743.31;10461693;28;20095;-73
2023/09/14 17:50:50;;;;;;;5.28;2.13;;;;;;;15.92;79.56;152688.88;10441953;28;20508;-71
2023/09/14 17:55:53;;;;;;;2.50;2.13;;;;;;;15.88;79.20;152681.09;10460385;28;20072;-72
2023/09/14 18:00:56;;;;;;;7.88;2.45;;;;;;;15.78;80.24;152655.19;10499736;28;20087;-71
2023/09/14 18:05:58;;;;;;;3.53;2.38;;;;;;;15.83;79.31;152666.84;10503072;28;20044;-71
2023/09/14 18:11:00;;;;;;;3.63;2.40;;;;;;;15.74;80.69;152643.50;10485711;28;20498;-72
2023/09/14 18:16:03;;;;;;;4.93;2.35;;;;;;;15.42;82.16;152563.13;10500608;28;20110;-71
2023/09/14 18:21:05;;;;;;;5.05;3.08;;;;;;;15.48;80.95;152578.66;10482084;28;20087;-71
2023/09/14 18:26:07;;;;;;;3.47;2.13;;;;;;;15.35;81.18;152546.25;10500510;28;20040;-72
2023/09/14 18:31:10;;;;;;;4.22;2.00;;;;;;;15.37;80.67;152550.19;10509221;28;20386;-71
2023/09/14 18:36:13;;;;;;;3.03;2.35;;;;;;;15.18;81.56;152500.91;10509220;28;20119;-73
2023/09/14 18:41:16;;;;;;;3.00;2.30;;;;;;;15.04;82.50;152467.22;10490465;28;20045;-73
2023/09/14 18:46:19;;;;;;;3.83;2.00;;;;;;;14.98;82.44;152450.41;10483818;22;20049;-69
2023/09/14 18:51:22;;;;;;;4.05;2.17;;;;;;;14.74;84.60;152389.50;10462837;28;20090;-69
2023/09/14 18:56:23;;;;;;;6.70;2.35;;;;;;;14.45;86.61;152315.66;10462489;28;20151;-68
2023/09/14 19:01:25;;;;;;;3.03;2.38;;;;;;;14.71;85.53;152383.06;10463301;28;20045;-68
2023/09/14 19:06:27;;;;;;;4.22;2.15;;;;;;;14.58;85.78;152350.69;10462568;28;20037;-68
2023/09/14 19:11:28;;;;;;;3.28;2.30;;;;;;;14.61;84.97;152358.47;10461759;28;20044;-68
2023/09/14 19:16:31;;;;;;;4.97;2.47;;;;;;;14.42;86.43;152307.88;10427238;28;20052;-69
2023/09/14 19:21:35;;;;;;;3.17;1.70;;;;;;;14.27;87.62;152270.34;10461215;28;20526;-69
2023/09/14 19:26:36;;;;;;;5.22;2.30;;;;;;;14.24;87.58;152263.88;10460929;28;20458;-69
2023/09/14 19:31:38;;;;;;;3.05;2.30;;;;;;;14.15;88.17;152240.56;10461228;28;20041;-68
2023/09/14 19:36:40;;;;;;;3.08;1.88;;;;;;;14.20;87.41;152253.50;10461049;28;20052;-69
2023/09/14 19:41:42;;;;;;;2.70;2.30;;;;;;;14.08;88.31;152223.75;10460236;28;20037;-69
2023/09/14 19:46:43;;;;;;;3.78;2.17;;;;;;;13.85;89.92;152164.19;10460543;28;20119;-69
2023/09/14 19:51:45;;;;;;;2.83;2.17;;;;;;;13.77;90.64;152143.50;10442267;28;20053;-69
2023/09/14 19:56:49;;;;;;;4.25;2.22;;;;;;;13.74;90.85;152137.03;10460814;28;20151;-69
2023/09/14 20:01:51;;;;;;;4.55;2.70;;;;;;;13.89;89.28;152174.53;10459872;28;20041;-68
2023/09/14 20:06:53;;;;;;;5.13;2.55;;;;;;;13.89;89.00;152175.81;10459642;28;20045;-69
2023/09/14 20:11:55;;;;;;;3.47;2.50;;;;;;;13.86;89.40;152166.81;10459849;28;20143;-68
2023/09/14 20:16:57;;;;;;;3.97;2.30;;;;;;;13.69;90.18;152122.81;10459784;28;20045;-68
2023/09/14 20:22:00;;;;;;;4.15;2.45;;;;;;;13.68;90.75;152120.16;10459039;28;20133;-68
2023/09/14 20:27:03;;;;;;;3.63;2.78;;;;;;;13.72;90.28;152130.53;10440841;28;20049;-69
2023/09/14 20:32:08;;;;;;;11.82;3.03;;;;;;;13.32;93.28;152030.88;10458683;28;20052;-70
2023/09/14 20:37:10;;;;;;;3.88;2.38;;;;;;;13.19;94.64;151995.91;10458263;28;20043;-68
2023/09/14 20:42:11;;;;;;;2.70;2.38;;;;;;;13.29;94.11;152023.16;10458019;28;20040;-68
2023/09/14 20:47:14;;;;;;;3.47;2.28;;;;;;;13.36;93.77;152039.94;10459077;28;20040;-68
2023/09/14 20:52:16;;;;;;;5.57;2.78;;;;;;;13.63;91.67;152108.53;10457871;28;20486;-68
2023/09/14 20:57:18;;;;;;;2.40;2.10;;;;;;;13.60;91.29;152100.78;10457633;28;20047;-68
2023/09/14 21:02:19;;;;;;;10.23;2.58;;;;;;;13.50;91.96;152074.88;10457287;28;20199;-67
2023/09/14 21:07:21;;;;;;;3.33;2.65;;;;;;;13.35;92.46;152037.38;10457234;28;20051;-68
2023/09/14 21:12:23;;;;;;;3.15;2.45;;;;;;;12.75;97.91;151884.66;10457048;28;20120;-68
2023/09/14 21:17:24;;;;;;;5.32;3.28;;;;;;;12.97;97.35;151941.63;10457600;28;20059;-68
2023/09/14 21:22:26;;;;;;;3.83;3.17;;;;;;;12.72;98.98;151878.22;10456494;28;20083;-68
2023/09/14 21:27:28;;;;;;;3.28;2.58;;;;;;;12.83;98.57;151906.66;10438653;28;20037;-68
2023/09/14 21:32:30;;;;;;;6.40;4.60;;;;;;;12.92;97.36;151928.66;10438728;28;20055;-68
2023/09/14 21:37:32;;;;;;;6.57;3.00;;;;;;;12.55;100.00;151835.53;10456023;28;20537;-68
2023/09/14 21:42:34;;;;;;;3.55;2.50;;;;;;;12.41;100.00;151799.34;10438252;28;20091;-67
2023/09/14 21:47:37;;;;;;;2.95;2.50;;;;;;;12.38;100.00;151792.88;10456780;28;20041;-68
2023/09/14 21:52:39;;;;;;;3.97;2.78;;;;;;;12.37;100.00;151789.00;10455611;28;20107;-67
2023/09/14 21:57:41;;;;;;;3.85;2.80;;;;;;;12.53;100.00;151829.09;10455882;28;20045;-68
2023/09/14 22:02:43;;;;;;;3.20;2.60;;;;;;;12.37;100.00;151789.00;10443989;28;20462;-68
2023/09/14 22:07:45;;;;;;;2.80;2.22;;;;;;;12.26;100.00;151761.88;10464366;28;20049;-68
2023/09/14 22:12:48;;;;;;;4.07;2.85;;;;;;;12.29;100.00;151768.31;10464278;28;20564;-68
2023/09/14 22:17:52;;;;;;;2.67;2.00;;;;;;;12.23;100.00;151754.09;10463864;28;20179;-67
2023/09/14 22:22:54;;;;;;;2.92;2.50;;;;;;;12.07;100.00;151714.00;10463856;28;20111;-68
2023/09/14 22:27:55;;;;;;;2.55;1.90;;;;;;;12.03;100.00;151703.66;10463841;28;20048;-68
2023/09/14 22:32:57;;;;;;;2.70;2.25;;;;;;;12.18;100.00;151741.19;10463557;28;20077;-68
2023/09/14 22:37:59;;;;;;;3.13;2.40;;;;;;;12.00;100.00;151695.94;10462898;28;20052;-68
2023/09/14 22:43:02;;;;;;;6.30;2.70;;;;;;;12.29;100.00;151768.31;10463132;28;20041;-68
2023/09/14 22:48:04;;;;;;;3.45;2.20;;;;;;;12.09;100.00;151717.91;10463024;28;20095;-68
2023/09/14 22:53:06;;;;;;;3.15;2.45;;;;;;;12.02;100.00;151699.81;10463682;28;20045;-68
2023/09/14 22:58:09;;;;;;;3.35;2.35;;;;;;;12.03;100.00;151703.66;10462779;28;20410;-68
2023/09/14 23:03:11;;;;;;;3.85;2.75;;;;;;;11.94;100.00;151680.41;10444291;28;20037;-68
2023/09/14 23:08:12;;;;;;;2.83;2.58;;;;;;;11.52;100.00;151574.41;10461690;28;20075;-68